createdAt,value
2018-07-26T00:01:53.860Z,4.60
2018-07-26T00:04:23.627Z,4.10
2018-07-26T00:06:53.443Z,4.20
2018-07-26T00:09:23.121Z,3.97
2018-07-26T00:11:52.892Z,10.73
2018-07-26T00:14:22.628Z,4.60
2018-07-26T00:16:52.399Z,3.97
2018-07-26T00:19:22.088Z,5.23
2018-07-26T00:21:51.848Z,4.10
2018-07-26T00:24:21.428Z,7.80
2018-07-26T00:26:53.326Z,4.80
2018-07-26T00:29:23.063Z,5.00
2018-07-26T00:31:52.816Z,6.00
2018-07-26T00:34:24.112Z,6.33
2018-07-26T00:36:53.877Z,4.40
2018-07-26T00:39:23.503Z,4.57
2018-07-26T00:41:53.253Z,4.60
2018-07-26T00:44:23.170Z,4.20
2018-07-26T00:46:53.248Z,5.17
2018-07-26T00:49:22.893Z,4.67
2018-07-26T00:51:52.632Z,5.30
2018-07-26T00:54:22.307Z,4.30
2018-07-26T00:56:52.216Z,4.57
2018-07-26T00:59:21.861Z,4.67
2018-07-26T01:01:51.609Z,4.27
2018-07-26T01:04:21.296Z,4.23
2018-07-26T01:06:51.001Z,4.70
2018-07-26T01:09:20.727Z,4.70
2018-07-26T01:11:50.863Z,4.20
2018-07-26T01:14:20.952Z,4.60
2018-07-26T01:16:51.039Z,4.90
2018-07-26T01:19:20.797Z,4.67
2018-07-26T01:21:54.047Z,4.60
2018-07-26T01:24:24.513Z,4.77
2018-07-26T01:26:54.273Z,4.37
2018-07-26T01:29:24.150Z,4.37
2018-07-26T01:31:54.759Z,4.63
2018-07-26T01:34:25.923Z,5.20
2018-07-26T01:52:08.630Z,6.53
2018-07-26T01:54:38.495Z,4.70
2018-07-26T01:57:08.259Z,5.00
2018-07-26T01:59:38.044Z,4.40
2018-07-26T02:02:08.472Z,4.80
2018-07-26T02:04:38.314Z,6.30
2018-07-26T02:07:08.032Z,5.07
2018-07-26T02:09:37.776Z,4.37
2018-07-26T02:12:07.726Z,5.33
2018-07-26T02:14:37.639Z,4.80
2018-07-26T02:17:07.565Z,5.80
2018-07-26T02:19:37.336Z,6.70
2018-07-26T02:22:07.185Z,6.60
2018-07-26T02:24:37.080Z,6.73
2018-07-26T02:27:07.187Z,8.70
2018-07-26T02:29:37.035Z,5.73
2018-07-26T02:32:06.762Z,6.07
2018-07-26T02:34:36.514Z,5.83
2018-07-26T02:37:06.451Z,6.57
2018-07-26T02:39:36.247Z,10.37
2018-07-26T02:42:06.006Z,9.23
2018-07-26T02:44:35.827Z,6.50
2018-07-26T02:47:05.761Z,17.70
2018-07-26T02:49:35.472Z,13.60
2018-07-26T02:52:05.305Z,15.77
2018-07-26T02:54:35.479Z,9.67
2018-07-26T02:57:05.313Z,8.73
2018-07-26T02:59:35.129Z,9.77
2018-07-26T03:02:05.075Z,5.70
2018-07-26T03:04:34.859Z,11.10
2018-07-26T03:07:04.624Z,12.30
2018-07-26T03:09:34.422Z,6.50
2018-07-26T03:12:04.039Z,11.83
2018-07-26T03:14:37.767Z,66.30
2018-07-26T03:17:07.646Z,46.10
2018-07-26T03:19:37.422Z,117.87
2018-07-26T03:22:07.622Z,106.53
2018-07-26T03:24:37.500Z,89.17
2018-07-26T03:27:07.756Z,48.83
2018-07-26T03:29:37.555Z,47.47
2018-07-26T03:32:07.722Z,51.37
2018-07-26T03:34:37.606Z,60.77
2018-07-26T03:37:07.474Z,58.00
2018-07-26T03:39:37.282Z,52.83
2018-07-26T03:42:07.114Z,52.70
2018-07-26T03:44:36.880Z,63.07
2018-07-26T03:47:06.626Z,53.33
2018-07-26T03:49:36.297Z,56.40
2018-07-26T03:52:06.515Z,59.63
2018-07-26T03:54:36.288Z,49.07
2018-07-26T03:57:06.543Z,54.33
2018-07-26T03:59:36.402Z,39.87
2018-07-26T04:02:06.223Z,24.20
2018-07-26T04:04:35.956Z,26.70
2018-07-26T04:07:05.754Z,33.87
2018-07-26T04:09:35.485Z,28.67
2018-07-26T04:12:05.271Z,29.20
2018-07-26T04:14:35.067Z,38.60
2018-07-26T04:17:04.837Z,31.07
2018-07-26T04:19:34.653Z,31.53
2018-07-26T04:22:04.436Z,19.20
2018-07-26T04:24:34.138Z,18.90
2018-07-26T04:27:03.914Z,11.70
2018-07-26T04:29:33.739Z,8.90
2018-07-26T04:32:03.478Z,27.57
2018-07-26T04:34:33.307Z,39.80
2018-07-26T04:37:03.066Z,44.87
2018-07-26T04:39:32.624Z,38.23
2018-07-26T04:42:02.554Z,42.87
2018-07-26T04:44:32.302Z,38.87
2018-07-26T04:47:02.147Z,40.60
2018-07-26T04:49:31.942Z,21.40
2018-07-26T04:52:01.685Z,25.57
2018-07-26T04:54:31.402Z,13.63
2018-07-26T04:57:01.217Z,56.43
2018-07-26T04:59:31.446Z,8.30
2018-07-26T05:02:01.221Z,18.63
2018-07-26T05:04:31.089Z,11.77
2018-07-26T05:07:00.806Z,12.20
2018-07-26T05:09:30.555Z,10.30
2018-07-26T05:12:00.306Z,12.70
2018-07-26T05:14:30.100Z,13.90
2018-07-26T05:16:59.922Z,10.47
2018-07-26T05:19:29.819Z,14.43
2018-07-26T05:21:59.556Z,22.77
2018-07-26T05:24:33.554Z,8.60
2018-07-26T05:27:03.261Z,16.20
2018-07-26T05:29:33.010Z,8.20
2018-07-26T05:32:03.964Z,8.73
2018-07-26T05:34:33.758Z,16.10
2018-07-26T05:37:03.542Z,7.77
2018-07-26T05:39:33.344Z,10.63
2018-07-26T05:42:03.590Z,21.47
2018-07-26T05:44:33.535Z,16.47
2018-07-26T05:47:03.305Z,11.57
2018-07-26T05:49:33.141Z,12.57
2018-07-26T05:52:03.039Z,34.00
2018-07-26T05:54:32.887Z,34.00
2018-07-26T05:57:02.718Z,13.50
2018-07-26T05:59:32.703Z,16.00
2018-07-26T06:02:02.761Z,32.33
2018-07-26T06:04:32.582Z,17.07
2018-07-26T06:07:02.324Z,10.90
2018-07-26T06:09:32.781Z,16.27
2018-07-26T06:12:02.605Z,9.10
2018-07-26T06:14:33.277Z,23.03
2018-07-26T06:17:03.190Z,13.77
2018-07-26T06:19:32.992Z,8.40
2018-07-26T06:22:03.120Z,9.43
2018-07-26T06:24:33.805Z,14.67
2018-07-26T06:27:04.834Z,10.13
2018-07-26T06:29:35.497Z,10.40
2018-07-26T06:32:06.905Z,11.20
2018-07-26T06:34:37.554Z,13.03
2018-07-26T06:37:08.985Z,14.00
2018-07-26T06:39:39.666Z,9.43
2018-07-26T06:42:11.447Z,8.00
2018-07-26T06:48:01.994Z,8.70
2018-07-26T06:50:31.594Z,8.13
2018-07-26T06:53:01.537Z,7.90
2018-07-26T06:55:31.203Z,8.30
2018-07-26T06:58:00.798Z,7.73
2018-07-26T07:00:30.443Z,8.00
2018-07-26T07:02:59.935Z,7.20
2018-07-26T07:05:29.622Z,12.60
2018-07-26T07:07:59.242Z,12.33
2018-07-26T07:10:28.932Z,7.30
2018-07-26T07:12:58.618Z,12.53
2018-07-26T07:15:28.262Z,6.90
2018-07-26T07:17:57.917Z,10.00
2018-07-26T07:20:27.546Z,7.20
2018-07-26T07:22:57.322Z,8.03
2018-07-26T07:25:26.904Z,8.10
2018-07-26T07:27:56.457Z,5.50
2018-07-26T07:30:26.074Z,6.17
2018-07-26T07:32:55.753Z,6.47
2018-07-26T07:35:25.363Z,5.50
2018-07-26T07:37:54.952Z,5.13
2018-07-26T07:40:24.553Z,4.80
2018-07-26T07:42:54.089Z,4.20
2018-07-26T07:45:23.658Z,8.70
2018-07-26T07:47:53.113Z,5.33
2018-07-26T07:50:23.150Z,6.10
2018-07-26T07:52:52.894Z,4.83
2018-07-26T07:55:22.453Z,5.47
2018-07-26T07:57:52.044Z,7.23
2018-07-26T08:00:21.512Z,4.40
2018-07-26T08:02:51.116Z,4.37
2018-07-26T08:05:20.783Z,4.23
2018-07-26T08:07:50.494Z,4.30
2018-07-26T08:10:19.972Z,4.43
2018-07-26T08:12:49.585Z,4.87
2018-07-26T08:15:19.211Z,4.03
2018-07-26T08:17:48.830Z,4.10
2018-07-26T08:20:18.465Z,4.07
2018-07-26T08:22:47.982Z,4.70
2018-07-26T08:25:17.532Z,3.93
2018-07-26T08:27:47.151Z,4.60
2018-07-26T08:30:16.736Z,5.40
2018-07-26T08:32:46.382Z,3.60
2018-07-26T08:35:16.211Z,4.67
2018-07-26T08:37:49.819Z,4.10
2018-07-26T08:40:21.972Z,4.90
2018-07-26T08:52:01.829Z,3.93
2018-07-26T08:54:32.801Z,3.67
2018-07-26T08:57:04.258Z,4.20
2018-07-26T08:59:34.260Z,8.03
2018-07-26T09:02:08.041Z,3.30
2018-07-26T10:38:57.585Z,3.07
2018-07-26T10:41:31.383Z,6.80
2018-07-26T10:44:10.868Z,3.90
2018-07-26T10:46:41.863Z,3.57
2018-07-26T10:49:16.728Z,2.80
2018-07-26T10:51:56.381Z,4.27
2018-07-26T10:54:28.525Z,3.30
2018-07-26T10:56:59.193Z,3.13
2018-07-26T10:59:29.513Z,3.67
2018-07-26T11:01:59.372Z,10.73
2018-07-26T11:04:29.055Z,8.10
2018-07-26T11:06:58.861Z,12.27
2018-07-26T11:09:28.532Z,3.47
2018-07-26T11:11:58.400Z,5.57
2018-07-26T11:14:28.174Z,5.70
2018-07-26T11:16:57.985Z,3.53
2018-07-26T11:19:27.710Z,11.40
2018-07-26T11:21:57.284Z,7.30
2018-07-26T11:24:27.154Z,4.70
2018-07-26T11:26:56.892Z,4.77
2018-07-26T11:29:26.617Z,3.60
2018-07-26T11:31:56.330Z,3.10
2018-07-26T11:34:26.060Z,3.60
2018-07-26T11:36:55.942Z,4.60
2018-07-26T11:39:25.972Z,3.60
2018-07-26T11:41:55.577Z,4.03
2018-07-26T11:44:25.365Z,6.07
2018-07-26T11:46:55.258Z,2.80
2018-07-26T11:49:24.828Z,3.23
2018-07-26T11:51:54.644Z,3.20
2018-07-26T11:54:24.437Z,10.43
2018-07-26T11:56:54.195Z,3.80
2018-07-26T11:59:27.148Z,2.70
2018-07-26T12:01:56.862Z,2.93
2018-07-26T12:04:26.522Z,2.83
2018-07-26T12:06:56.386Z,2.37
2018-07-26T12:09:27.074Z,2.20
2018-07-26T12:11:57.561Z,16.60
2018-07-26T12:14:27.384Z,3.00
2018-07-26T12:16:57.634Z,2.90
2018-07-26T12:19:28.441Z,2.17
2018-07-26T12:21:58.385Z,3.43
2018-07-26T12:24:28.156Z,2.57
2018-07-26T12:26:57.968Z,3.53
2018-07-26T12:29:28.709Z,3.80
2018-07-26T12:31:58.906Z,3.07
2018-07-26T12:34:28.990Z,6.13
2018-07-26T12:36:59.352Z,7.80
2018-07-26T12:39:30.643Z,4.97
2018-07-26T12:42:00.441Z,7.03
2018-07-26T12:44:30.701Z,8.23
2018-07-26T12:47:00.586Z,8.40
2018-07-26T12:49:31.476Z,10.77
2018-07-26T12:52:01.427Z,6.77
2018-07-26T12:54:38.050Z,4.03
2018-07-26T12:57:09.015Z,4.30
2018-07-26T12:59:42.053Z,4.33
2018-07-26T13:02:12.385Z,4.67
2018-07-26T13:04:42.269Z,4.33
2018-07-26T13:07:12.149Z,3.90
2018-07-26T13:09:42.634Z,4.57
2018-07-26T13:12:12.605Z,5.53
2018-07-26T13:14:42.578Z,4.97
2018-07-26T13:17:12.289Z,5.17
2018-07-26T13:19:43.001Z,5.83
2018-07-26T13:22:12.892Z,3.80
2018-07-26T13:24:42.701Z,3.20
2018-07-26T13:27:12.478Z,4.60
2018-07-26T13:29:43.804Z,15.60
2018-07-26T13:32:13.605Z,11.57
2018-07-26T13:34:43.390Z,7.03
2018-07-26T13:37:14.078Z,7.73
2018-07-26T13:39:45.500Z,3.30
2018-07-26T13:42:16.757Z,4.23
2018-07-26T13:44:46.518Z,4.50
2018-07-26T13:47:16.658Z,4.30
2018-07-26T13:49:48.766Z,4.80
2018-07-26T13:52:18.737Z,4.20
2018-07-26T13:54:48.573Z,4.17
2018-07-26T13:57:19.842Z,5.13
2018-07-26T13:59:49.990Z,5.47
2018-07-26T14:02:19.991Z,5.00
2018-07-26T14:04:49.869Z,4.70
2018-07-26T14:07:20.514Z,4.77
2018-07-26T14:09:51.485Z,10.53
2018-07-26T14:12:21.400Z,4.77
2018-07-26T14:14:51.197Z,7.07
2018-07-26T14:17:21.045Z,5.97
2018-07-26T14:19:54.052Z,5.27
2018-07-26T14:22:23.770Z,5.23
2018-07-26T14:24:53.769Z,5.80
2018-07-26T14:27:23.532Z,7.00
2018-07-26T14:29:56.891Z,5.37
2018-07-26T14:32:27.426Z,4.93
2018-07-26T14:34:57.241Z,5.47
2018-07-26T14:37:26.921Z,5.77
2018-07-26T14:39:57.367Z,5.57
2018-07-26T14:42:27.306Z,4.23
2018-07-26T14:44:57.083Z,4.80
2018-07-26T14:47:26.868Z,5.40
2018-07-26T14:49:56.662Z,4.77
2018-07-26T14:52:26.378Z,5.33
2018-07-26T14:54:56.188Z,5.87
2018-07-26T14:57:25.981Z,6.10
2018-07-26T14:59:55.796Z,4.10
2018-07-26T15:02:25.576Z,3.53
2018-07-26T15:04:55.412Z,4.23
2018-07-26T15:07:25.114Z,4.63
2018-07-26T15:09:54.894Z,13.80
2018-07-26T15:12:24.666Z,4.10
2018-07-26T15:14:54.449Z,4.83
2018-07-26T15:17:24.234Z,4.67
2018-07-26T15:19:53.963Z,5.37
2018-07-26T15:22:23.912Z,4.07
2018-07-26T15:24:53.631Z,4.80
2018-07-26T15:27:23.446Z,4.47
2018-07-26T15:29:53.288Z,3.70
2018-07-26T15:32:23.037Z,5.40
2018-07-26T15:34:52.867Z,5.13
2018-07-26T15:37:22.567Z,5.67
2018-07-26T15:39:52.352Z,5.23
2018-07-26T15:42:22.421Z,3.90
2018-07-26T15:44:52.298Z,3.80
2018-07-26T15:47:23.305Z,2.90
2018-07-26T15:49:54.061Z,4.00
2018-07-26T15:52:23.797Z,5.50
2018-07-26T15:54:53.433Z,3.33
2018-07-26T15:57:23.310Z,11.13
2018-07-26T15:59:52.950Z,3.80
2018-07-26T16:02:22.934Z,5.60
2018-07-26T16:04:53.070Z,2.67
2018-07-26T16:07:22.901Z,10.93
2018-07-26T16:09:52.643Z,3.93
2018-07-26T16:12:22.517Z,12.03
2018-07-26T16:14:52.221Z,2.70
2018-07-26T16:17:22.076Z,3.90
2018-07-26T16:19:51.767Z,2.80
2018-07-26T16:22:21.617Z,2.70
2018-07-26T16:24:51.481Z,12.13
2018-07-26T16:27:21.265Z,12.73
2018-07-26T16:29:51.016Z,4.13
2018-07-26T16:32:20.877Z,3.10
2018-07-26T16:34:50.654Z,2.80
2018-07-26T16:37:20.426Z,2.13
2018-07-26T16:39:50.288Z,4.27
2018-07-26T16:42:20.234Z,2.63
2018-07-26T16:44:50.489Z,3.20
2018-07-26T16:47:20.425Z,2.40
2018-07-26T16:49:50.400Z,2.97
2018-07-26T16:52:20.330Z,2.10
2018-07-26T16:54:50.785Z,2.90
2018-07-26T16:57:20.444Z,2.37
2018-07-26T16:59:50.370Z,3.57
2018-07-26T17:02:20.250Z,2.27
2018-07-26T17:04:50.241Z,2.60
2018-07-26T17:07:20.135Z,2.67
2018-07-26T17:09:49.914Z,3.13
2018-07-26T17:12:19.926Z,3.13
2018-07-26T17:14:49.850Z,2.70
2018-07-26T17:17:19.595Z,2.27
2018-07-26T17:19:49.416Z,2.57
2018-07-26T17:22:19.059Z,4.27
2018-07-26T17:24:48.991Z,10.70
2018-07-26T17:27:18.732Z,3.63
2018-07-26T17:29:48.520Z,2.80
2018-07-26T17:32:18.334Z,5.23
2018-07-26T17:34:49.125Z,3.00
2018-07-26T17:37:18.862Z,3.60
2018-07-26T17:39:48.738Z,2.80
2018-07-26T17:42:18.589Z,4.33
2018-07-26T17:44:49.028Z,5.60
2018-07-26T17:47:18.951Z,4.03
2018-07-26T17:49:48.753Z,3.60
2018-07-26T17:52:18.674Z,3.77
2018-07-26T17:54:48.473Z,4.10
2018-07-26T17:57:18.240Z,3.87
2018-07-26T17:59:47.932Z,5.60
2018-07-26T18:02:17.682Z,5.90
2018-07-26T18:04:47.635Z,8.43
2018-07-26T18:07:17.505Z,9.80
2018-07-26T18:09:47.230Z,10.57
2018-07-26T18:12:17.044Z,7.67
2018-07-26T18:14:46.803Z,7.47
2018-07-26T18:17:16.582Z,9.10
2018-07-26T18:19:46.341Z,5.70
2018-07-26T18:22:16.077Z,5.90
2018-07-26T18:24:45.902Z,5.67
2018-07-26T18:27:15.662Z,4.80
2018-07-26T18:29:45.417Z,4.33
2018-07-26T18:32:15.224Z,4.20
2018-07-26T18:34:46.315Z,4.53
2018-07-26T18:37:16.175Z,3.50
2018-07-26T18:39:46.353Z,3.50
2018-07-26T18:42:16.107Z,3.40
2018-07-26T18:44:45.839Z,11.33
2018-07-26T18:47:15.788Z,4.17
2018-07-26T18:49:45.778Z,3.60
2018-07-26T18:52:15.650Z,24.03
2018-07-26T18:54:45.425Z,3.63
2018-07-26T18:57:15.161Z,5.93
2018-07-26T18:59:44.844Z,3.10
2018-07-26T19:02:14.664Z,3.40
2018-07-26T19:04:44.590Z,4.07
2018-07-26T19:07:14.478Z,5.40
2018-07-26T19:09:44.339Z,3.00
2018-07-26T19:12:14.215Z,4.57
2018-07-26T19:14:44.030Z,5.40
2018-07-26T19:17:13.629Z,4.40
2018-07-26T19:19:43.445Z,4.03
2018-07-26T19:22:13.282Z,4.63
2018-07-26T19:24:42.972Z,3.93
2018-07-26T19:27:12.775Z,3.80
2018-07-26T19:29:42.600Z,5.33
2018-07-26T19:32:16.023Z,4.47
2018-07-26T19:34:46.523Z,5.00
2018-07-26T19:37:18.603Z,5.03
2018-07-26T19:39:48.275Z,16.70
2018-07-26T19:42:26.287Z,5.20
2018-07-26T19:45:04.286Z,5.30
2018-07-26T19:47:43.004Z,4.90
2018-07-26T19:50:35.185Z,4.93
2018-07-26T19:53:19.832Z,4.20
2018-07-26T19:55:49.787Z,4.23
2018-07-26T20:01:22.487Z,4.27
2018-07-26T20:06:28.346Z,7.53
2018-07-26T20:08:58.130Z,4.50
2018-07-26T20:11:31.012Z,6.70
2018-07-26T20:14:00.754Z,4.30
2018-07-26T20:16:32.976Z,4.57
2018-07-26T20:19:09.243Z,4.30
